sensor_id;sensor_type;location;lat;lon;timestamp;P1;durP1;ratioP1;P2;durP2;ratioP2
12218;SDS011;6172;42.646;23.344;2022-10-24T00:01:00;13.87;;;8.63;;
12218;SDS011;6172;42.646;23.344;2022-10-24T00:03:28;14.07;;;8.53;;
12218;SDS011;6172;42.646;23.344;2022-10-24T00:05:55;14.43;;;8.37;;
12218;SDS011;6172;42.646;23.344;2022-10-24T00:08:22;10.27;;;7.53;;
12218;SDS011;6172;42.646;23.344;2022-10-24T00:10:48;13.17;;;7.87;;
12218;SDS011;6172;42.646;23.344;2022-10-24T00:13:15;12.33;;;7.63;;
12218;SDS011;6172;42.646;23.344;2022-10-24T00:15:43;11.63;;;7.67;;
12218;SDS011;6172;42.646;23.344;2022-10-24T00:18:12;12.60;;;8.33;;
12218;SDS011;6172;42.646;23.344;2022-10-24T00:20:41;13.27;;;7.40;;
12218;SDS011;6172;42.646;23.344;2022-10-24T00:23:08;12.53;;;8.60;;
12218;SDS011;6172;42.646;23.344;2022-10-24T00:25:36;12.50;;;7.90;;
12218;SDS011;6172;42.646;23.344;2022-10-24T00:28:03;11.73;;;8.03;;
12218;SDS011;6172;42.646;23.344;2022-10-24T00:30:30;13.37;;;8.93;;
12218;SDS011;6172;42.646;23.344;2022-10-24T00:32:56;11.80;;;8.13;;
12218;SDS011;6172;42.646;23.344;2022-10-24T00:35:23;11.83;;;7.97;;
12218;SDS011;6172;42.646;23.344;2022-10-24T00:37:52;11.20;;;7.90;;
12218;SDS011;6172;42.646;23.344;2022-10-24T00:40:18;11.10;;;7.97;;
12218;SDS011;6172;42.646;23.344;2022-10-24T00:42:46;13.00;;;8.20;;
12218;SDS011;6172;42.646;23.344;2022-10-24T00:45:36;12.93;;;8.53;;
12218;SDS011;6172;42.646;23.344;2022-10-24T00:48:21;12.80;;;7.30;;
12218;SDS011;6172;42.646;23.344;2022-10-24T00:50:51;10.20;;;6.80;;
12218;SDS011;6172;42.646;23.344;2022-10-24T00:53:22;9.33;;;6.87;;
12218;SDS011;6172;42.646;23.344;2022-10-24T00:55:52;11.23;;;7.87;;
12218;SDS011;6172;42.646;23.344;2022-10-24T00:58:22;9.10;;;7.17;;
12218;SDS011;6172;42.646;23.344;2022-10-24T01:00:52;11.30;;;7.53;;
12218;SDS011;6172;42.646;23.344;2022-10-24T01:03:20;12.33;;;7.17;;
12218;SDS011;6172;42.646;23.344;2022-10-24T01:05:52;12.00;;;7.67;;
12218;SDS011;6172;42.646;23.344;2022-10-24T01:08:33;15.70;;;7.50;;
12218;SDS011;6172;42.646;23.344;2022-10-24T01:11:09;10.33;;;7.23;;
12218;SDS011;6172;42.646;23.344;2022-10-24T01:13:49;14.47;;;7.47;;
12218;SDS011;6172;42.646;23.344;2022-10-24T01:16:24;11.50;;;7.17;;
12218;SDS011;6172;42.646;23.344;2022-10-24T01:18:56;11.83;;;7.67;;
12218;SDS011;6172;42.646;23.344;2022-10-24T01:21:31;11.43;;;8.53;;
12218;SDS011;6172;42.646;23.344;2022-10-24T01:24:05;10.67;;;8.13;;
12218;SDS011;6172;42.646;23.344;2022-10-24T01:26:53;11.40;;;7.30;;
12218;SDS011;6172;42.646;23.344;2022-10-24T01:32:40;10.57;;;7.77;;
12218;SDS011;6172;42.646;23.344;2022-10-24T01:35:21;10.33;;;8.10;;
12218;SDS011;6172;42.646;23.344;2022-10-24T01:37:57;11.90;;;8.23;;
12218;SDS011;6172;42.646;23.344;2022-10-24T01:40:29;13.07;;;8.87;;
12218;SDS011;6172;42.646;23.344;2022-10-24T01:42:59;12.37;;;8.77;;
12218;SDS011;6172;42.646;23.344;2022-10-24T01:45:34;13.13;;;9.43;;
12218;SDS011;6172;42.646;23.344;2022-10-24T01:48:04;14.90;;;8.50;;
12218;SDS011;6172;42.646;23.344;2022-10-24T01:50:35;11.83;;;8.70;;
12218;SDS011;6172;42.646;23.344;2022-10-24T01:53:04;12.07;;;9.03;;
12218;SDS011;6172;42.646;23.344;2022-10-24T01:55:34;12.70;;;9.20;;
12218;SDS011;6172;42.646;23.344;2022-10-24T01:58:03;14.17;;;9.40;;
12218;SDS011;6172;42.646;23.344;2022-10-24T02:00:32;14.73;;;9.40;;
12218;SDS011;6172;42.646;23.344;2022-10-24T02:03:00;14.57;;;9.57;;
12218;SDS011;6172;42.646;23.344;2022-10-24T02:05:35;13.00;;;8.60;;
12218;SDS011;6172;42.646;23.344;2022-10-24T02:08:07;12.93;;;8.97;;
12218;SDS011;6172;42.646;23.344;2022-10-24T02:10:40;12.13;;;8.17;;
12218;SDS011;6172;42.646;23.344;2022-10-24T02:13:12;14.57;;;8.53;;
12218;SDS011;6172;42.646;23.344;2022-10-24T02:15:45;13.50;;;9.20;;
12218;SDS011;6172;42.646;23.344;2022-10-24T02:18:16;12.87;;;8.67;;
12218;SDS011;6172;42.646;23.344;2022-10-24T02:20:46;13.67;;;8.43;;
12218;SDS011;6172;42.646;23.344;2022-10-24T02:23:20;13.17;;;8.40;;
12218;SDS011;6172;42.646;23.344;2022-10-24T02:25:52;11.77;;;8.73;;
12218;SDS011;6172;42.646;23.344;2022-10-24T02:28:24;11.80;;;8.20;;
12218;SDS011;6172;42.646;23.344;2022-10-24T02:30:57;10.37;;;7.87;;
12218;SDS011;6172;42.646;23.344;2022-10-24T02:33:28;10.83;;;7.60;;
12218;SDS011;6172;42.646;23.344;2022-10-24T02:35:56;13.77;;;8.43;;
12218;SDS011;6172;42.646;23.344;2022-10-24T02:38:25;11.10;;;8.67;;
12218;SDS011;6172;42.646;23.344;2022-10-24T02:40:55;12.67;;;7.90;;
12218;SDS011;6172;42.646;23.344;2022-10-24T02:43:24;12.90;;;7.83;;
12218;SDS011;6172;42.646;23.344;2022-10-24T02:45:52;11.00;;;7.20;;
12218;SDS011;6172;42.646;23.344;2022-10-24T02:48:24;17.47;;;8.10;;
12218;SDS011;6172;42.646;23.344;2022-10-24T02:50:54;13.27;;;9.07;;
12218;SDS011;6172;42.646;23.344;2022-10-24T02:53:22;9.70;;;8.00;;
12218;SDS011;6172;42.646;23.344;2022-10-24T02:55:50;10.80;;;7.87;;
12218;SDS011;6172;42.646;23.344;2022-10-24T02:58:17;12.60;;;7.93;;
12218;SDS011;6172;42.646;23.344;2022-10-24T03:00:44;14.47;;;8.40;;
12218;SDS011;6172;42.646;23.344;2022-10-24T03:03:11;11.57;;;8.17;;
12218;SDS011;6172;42.646;23.344;2022-10-24T03:05:39;14.40;;;8.40;;
12218;SDS011;6172;42.646;23.344;2022-10-24T03:08:06;13.07;;;8.40;;
12218;SDS011;6172;42.646;23.344;2022-10-24T03:10:33;14.73;;;9.30;;
12218;SDS011;6172;42.646;23.344;2022-10-24T03:13:00;18.60;;;9.27;;
12218;SDS011;6172;42.646;23.344;2022-10-24T03:15:27;14.93;;;8.73;;
12218;SDS011;6172;42.646;23.344;2022-10-24T03:17:54;14.70;;;8.77;;
12218;SDS011;6172;42.646;23.344;2022-10-24T03:20:21;15.87;;;8.97;;
12218;SDS011;6172;42.646;23.344;2022-10-24T03:22:50;14.37;;;9.23;;
12218;SDS011;6172;42.646;23.344;2022-10-24T03:25:17;14.60;;;9.47;;
12218;SDS011;6172;42.646;23.344;2022-10-24T03:27:44;12.50;;;8.77;;
12218;SDS011;6172;42.646;23.344;2022-10-24T03:30:11;14.33;;;8.87;;
12218;SDS011;6172;42.646;23.344;2022-10-24T03:32:38;14.60;;;8.83;;
12218;SDS011;6172;42.646;23.344;2022-10-24T03:35:05;13.27;;;8.37;;
12218;SDS011;6172;42.646;23.344;2022-10-24T03:37:32;12.93;;;7.47;;
12218;SDS011;6172;42.646;23.344;2022-10-24T03:40:01;9.03;;;7.03;;
12218;SDS011;6172;42.646;23.344;2022-10-24T03:42:28;12.63;;;7.80;;
12218;SDS011;6172;42.646;23.344;2022-10-24T03:44:54;14.30;;;8.00;;
12218;SDS011;6172;42.646;23.344;2022-10-24T03:47:21;14.53;;;8.20;;
12218;SDS011;6172;42.646;23.344;2022-10-24T03:49:48;11.23;;;7.13;;
12218;SDS011;6172;42.646;23.344;2022-10-24T03:52:15;14.83;;;7.77;;
12218;SDS011;6172;42.646;23.344;2022-10-24T03:54:42;14.43;;;8.53;;
12218;SDS011;6172;42.646;23.344;2022-10-24T03:57:10;12.63;;;7.93;;
12218;SDS011;6172;42.646;23.344;2022-10-24T03:59:37;12.87;;;8.17;;
12218;SDS011;6172;42.646;23.344;2022-10-24T04:02:04;16.00;;;7.67;;
12218;SDS011;6172;42.646;23.344;2022-10-24T04:04:31;12.93;;;8.10;;
12218;SDS011;6172;42.646;23.344;2022-10-24T04:06:57;10.63;;;8.00;;
12218;SDS011;6172;42.646;23.344;2022-10-24T04:09:25;11.20;;;8.17;;
12218;SDS011;6172;42.646;23.344;2022-10-24T04:11:52;12.93;;;7.97;;
12218;SDS011;6172;42.646;23.344;2022-10-24T04:14:20;18.60;;;9.77;;
12218;SDS011;6172;42.646;23.344;2022-10-24T04:16:47;14.37;;;8.47;;
12218;SDS011;6172;42.646;23.344;2022-10-24T04:19:14;17.13;;;8.93;;
12218;SDS011;6172;42.646;23.344;2022-10-24T04:21:42;14.10;;;8.83;;
12218;SDS011;6172;42.646;23.344;2022-10-24T04:24:09;15.10;;;8.53;;
12218;SDS011;6172;42.646;23.344;2022-10-24T04:26:37;17.07;;;8.73;;
12218;SDS011;6172;42.646;23.344;2022-10-24T04:29:04;18.23;;;9.53;;
12218;SDS011;6172;42.646;23.344;2022-10-24T04:31:33;20.83;;;9.57;;
12218;SDS011;6172;42.646;23.344;2022-10-24T04:33:59;16.37;;;9.83;;
12218;SDS011;6172;42.646;23.344;2022-10-24T04:36:26;23.03;;;10.37;;
12218;SDS011;6172;42.646;23.344;2022-10-24T04:38:53;28.47;;;9.70;;
12218;SDS011;6172;42.646;23.344;2022-10-24T04:41:20;18.00;;;9.83;;
12218;SDS011;6172;42.646;23.344;2022-10-24T04:43:47;15.10;;;9.57;;
12218;SDS011;6172;42.646;23.344;2022-10-24T04:46:14;16.77;;;9.37;;
12218;SDS011;6172;42.646;23.344;2022-10-24T04:48:42;18.10;;;9.63;;
12218;SDS011;6172;42.646;23.344;2022-10-24T04:51:09;17.00;;;9.73;;
12218;SDS011;6172;42.646;23.344;2022-10-24T04:53:36;17.67;;;9.80;;
12218;SDS011;6172;42.646;23.344;2022-10-24T04:56:03;15.10;;;9.27;;
12218;SDS011;6172;42.646;23.344;2022-10-24T04:58:30;15.67;;;10.50;;
12218;SDS011;6172;42.646;23.344;2022-10-24T05:00:57;19.17;;;10.53;;
12218;SDS011;6172;42.646;23.344;2022-10-24T05:03:24;21.70;;;9.97;;
12218;SDS011;6172;42.646;23.344;2022-10-24T05:05:52;26.97;;;10.47;;
12218;SDS011;6172;42.646;23.344;2022-10-24T05:08:19;16.27;;;10.23;;
12218;SDS011;6172;42.646;23.344;2022-10-24T05:10:46;21.80;;;10.47;;
12218;SDS011;6172;42.646;23.344;2022-10-24T05:13:13;29.70;;;11.60;;
12218;SDS011;6172;42.646;23.344;2022-10-24T05:15:40;22.63;;;11.53;;
12218;SDS011;6172;42.646;23.344;2022-10-24T05:18:07;21.57;;;10.50;;
12218;SDS011;6172;42.646;23.344;2022-10-24T05:20:34;27.93;;;9.83;;
12218;SDS011;6172;42.646;23.344;2022-10-24T05:23:02;17.37;;;9.87;;
12218;SDS011;6172;42.646;23.344;2022-10-24T05:25:30;19.80;;;10.13;;
12218;SDS011;6172;42.646;23.344;2022-10-24T05:27:57;21.53;;;8.73;;
12218;SDS011;6172;42.646;23.344;2022-10-24T05:30:23;13.97;;;9.03;;
12218;SDS011;6172;42.646;23.344;2022-10-24T05:32:50;16.47;;;8.63;;
12218;SDS011;6172;42.646;23.344;2022-10-24T05:35:17;20.93;;;8.83;;
12218;SDS011;6172;42.646;23.344;2022-10-24T05:37:44;18.97;;;9.00;;
12218;SDS011;6172;42.646;23.344;2022-10-24T05:40:12;17.87;;;8.67;;
12218;SDS011;6172;42.646;23.344;2022-10-24T05:42:40;18.80;;;8.67;;
12218;SDS011;6172;42.646;23.344;2022-10-24T05:45:07;17.67;;;9.33;;
12218;SDS011;6172;42.646;23.344;2022-10-24T05:47:36;15.60;;;9.50;;
12218;SDS011;6172;42.646;23.344;2022-10-24T05:50:03;15.33;;;8.40;;
12218;SDS011;6172;42.646;23.344;2022-10-24T05:52:30;16.07;;;9.17;;
12218;SDS011;6172;42.646;23.344;2022-10-24T05:55:00;18.40;;;9.67;;
12218;SDS011;6172;42.646;23.344;2022-10-24T05:57:28;21.97;;;8.70;;
12218;SDS011;6172;42.646;23.344;2022-10-24T05:59:58;16.07;;;8.33;;
12218;SDS011;6172;42.646;23.344;2022-10-24T06:02:25;18.30;;;9.43;;
12218;SDS011;6172;42.646;23.344;2022-10-24T06:04:52;16.17;;;9.27;;
12218;SDS011;6172;42.646;23.344;2022-10-24T06:07:20;26.43;;;9.67;;
12218;SDS011;6172;42.646;23.344;2022-10-24T06:09:47;17.80;;;10.10;;
12218;SDS011;6172;42.646;23.344;2022-10-24T06:12:14;23.30;;;11.47;;
12218;SDS011;6172;42.646;23.344;2022-10-24T06:14:42;16.17;;;9.90;;
12218;SDS011;6172;42.646;23.344;2022-10-24T06:17:10;21.77;;;11.30;;
12218;SDS011;6172;42.646;23.344;2022-10-24T06:19:37;20.10;;;10.10;;
12218;SDS011;6172;42.646;23.344;2022-10-24T06:22:04;16.83;;;9.83;;
12218;SDS011;6172;42.646;23.344;2022-10-24T06:24:33;15.70;;;10.27;;
12218;SDS011;6172;42.646;23.344;2022-10-24T06:27:00;16.80;;;9.10;;
12218;SDS011;6172;42.646;23.344;2022-10-24T06:29:27;16.47;;;9.70;;
12218;SDS011;6172;42.646;23.344;2022-10-24T06:31:55;16.80;;;9.50;;
12218;SDS011;6172;42.646;23.344;2022-10-24T06:34:23;19.33;;;10.00;;
12218;SDS011;6172;42.646;23.344;2022-10-24T06:36:50;22.73;;;10.67;;
12218;SDS011;6172;42.646;23.344;2022-10-24T06:39:17;17.37;;;8.83;;
12218;SDS011;6172;42.646;23.344;2022-10-24T06:41:44;20.63;;;9.17;;
12218;SDS011;6172;42.646;23.344;2022-10-24T06:44:11;16.53;;;8.83;;
12218;SDS011;6172;42.646;23.344;2022-10-24T06:46:38;16.43;;;8.87;;
12218;SDS011;6172;42.646;23.344;2022-10-24T06:49:06;17.13;;;9.03;;
12218;SDS011;6172;42.646;23.344;2022-10-24T06:51:34;12.83;;;8.30;;
12218;SDS011;6172;42.646;23.344;2022-10-24T06:54:01;14.27;;;8.57;;
12218;SDS011;6172;42.646;23.344;2022-10-24T06:56:28;13.63;;;8.80;;
12218;SDS011;6172;42.646;23.344;2022-10-24T06:58:54;11.55;;;7.97;;
12218;SDS011;6172;42.646;23.344;2022-10-24T07:01:22;13.93;;;9.57;;
12218;SDS011;6172;42.646;23.344;2022-10-24T07:03:51;14.05;;;9.13;;
12218;SDS011;6172;42.646;23.344;2022-10-24T07:06:20;17.00;;;9.02;;
12218;SDS011;6172;42.646;23.344;2022-10-24T07:08:48;16.35;;;9.05;;
12218;SDS011;6172;42.646;23.344;2022-10-24T07:11:17;13.63;;;8.25;;
12218;SDS011;6172;42.646;23.344;2022-10-24T07:13:44;14.02;;;8.55;;
12218;SDS011;6172;42.646;23.344;2022-10-24T07:16:11;10.98;;;8.07;;
12218;SDS011;6172;42.646;23.344;2022-10-24T07:18:38;16.13;;;9.10;;
12218;SDS011;6172;42.646;23.344;2022-10-24T07:21:06;10.40;;;8.50;;
12218;SDS011;6172;42.646;23.344;2022-10-24T07:23:37;15.85;;;8.60;;
12218;SDS011;6172;42.646;23.344;2022-10-24T07:26:06;15.00;;;8.57;;
12218;SDS011;6172;42.646;23.344;2022-10-24T07:28:35;13.07;;;8.48;;
12218;SDS011;6172;42.646;23.344;2022-10-24T07:31:03;11.77;;;7.75;;
12218;SDS011;6172;42.646;23.344;2022-10-24T07:33:31;11.38;;;8.13;;
12218;SDS011;6172;42.646;23.344;2022-10-24T07:35:58;17.85;;;7.35;;
12218;SDS011;6172;42.646;23.344;2022-10-24T07:38:25;10.77;;;6.95;;
12218;SDS011;6172;42.646;23.344;2022-10-24T07:40:54;12.80;;;8.07;;
12218;SDS011;6172;42.646;23.344;2022-10-24T07:43:20;16.70;;;8.98;;
12218;SDS011;6172;42.646;23.344;2022-10-24T07:45:47;15.95;;;9.55;;
12218;SDS011;6172;42.646;23.344;2022-10-24T07:48:14;18.33;;;9.75;;
12218;SDS011;6172;42.646;23.344;2022-10-24T07:50:42;11.35;;;8.32;;
12218;SDS011;6172;42.646;23.344;2022-10-24T07:53:11;14.18;;;8.88;;
12218;SDS011;6172;42.646;23.344;2022-10-24T07:55:38;19.52;;;9.27;;
12218;SDS011;6172;42.646;23.344;2022-10-24T07:58:07;17.60;;;9.18;;
12218;SDS011;6172;42.646;23.344;2022-10-24T08:00:36;16.45;;;9.85;;
12218;SDS011;6172;42.646;23.344;2022-10-24T08:03:06;15.77;;;9.88;;
12218;SDS011;6172;42.646;23.344;2022-10-24T08:05:33;16.08;;;9.50;;
12218;SDS011;6172;42.646;23.344;2022-10-24T08:07:59;17.08;;;9.93;;
12218;SDS011;6172;42.646;23.344;2022-10-24T08:10:26;15.43;;;9.30;;
12218;SDS011;6172;42.646;23.344;2022-10-24T08:12:53;18.65;;;9.40;;
12218;SDS011;6172;42.646;23.344;2022-10-24T08:15:22;12.98;;;9.20;;
12218;SDS011;6172;42.646;23.344;2022-10-24T08:17:51;17.52;;;9.50;;
12218;SDS011;6172;42.646;23.344;2022-10-24T08:20:18;17.38;;;10.18;;
12218;SDS011;6172;42.646;23.344;2022-10-24T08:22:48;16.27;;;11.00;;
12218;SDS011;6172;42.646;23.344;2022-10-24T08:25:15;16.40;;;10.57;;
12218;SDS011;6172;42.646;23.344;2022-10-24T08:27:42;15.88;;;11.13;;
12218;SDS011;6172;42.646;23.344;2022-10-24T08:30:09;19.05;;;11.05;;
12218;SDS011;6172;42.646;23.344;2022-10-24T08:32:37;16.63;;;10.85;;
12218;SDS011;6172;42.646;23.344;2022-10-24T08:35:04;15.07;;;10.85;;
12218;SDS011;6172;42.646;23.344;2022-10-24T08:37:34;13.70;;;9.65;;
12218;SDS011;6172;42.646;23.344;2022-10-24T08:40:03;14.25;;;10.27;;
12218;SDS011;6172;42.646;23.344;2022-10-24T08:42:31;14.20;;;9.63;;
12218;SDS011;6172;42.646;23.344;2022-10-24T08:44:59;14.07;;;10.65;;
12218;SDS011;6172;42.646;23.344;2022-10-24T08:47:28;19.15;;;11.45;;
12218;SDS011;6172;42.646;23.344;2022-10-24T08:50:04;18.33;;;12.27;;
12218;SDS011;6172;42.646;23.344;2022-10-24T08:52:37;18.15;;;12.00;;
12218;SDS011;6172;42.646;23.344;2022-10-24T08:55:10;18.52;;;11.27;;
12218;SDS011;6172;42.646;23.344;2022-10-24T08:57:40;16.63;;;11.55;;
12218;SDS011;6172;42.646;23.344;2022-10-24T09:00:21;19.67;;;14.13;;
12218;SDS011;6172;42.646;23.344;2022-10-24T09:02:52;20.42;;;13.05;;
12218;SDS011;6172;42.646;23.344;2022-10-24T09:05:27;19.95;;;13.85;;
12218;SDS011;6172;42.646;23.344;2022-10-24T09:07:57;17.88;;;13.00;;
12218;SDS011;6172;42.646;23.344;2022-10-24T09:10:32;18.02;;;13.05;;
12218;SDS011;6172;42.646;23.344;2022-10-24T09:13:07;19.70;;;12.55;;
12218;SDS011;6172;42.646;23.344;2022-10-24T09:15:38;19.25;;;11.52;;
12218;SDS011;6172;42.646;23.344;2022-10-24T09:18:08;16.55;;;11.43;;
12218;SDS011;6172;42.646;23.344;2022-10-24T09:20:43;16.30;;;10.65;;
12218;SDS011;6172;42.646;23.344;2022-10-24T09:23:10;18.05;;;10.02;;
12218;SDS011;6172;42.646;23.344;2022-10-24T09:25:40;15.73;;;10.40;;
12218;SDS011;6172;42.646;23.344;2022-10-24T09:28:10;14.50;;;8.55;;
12218;SDS011;6172;42.646;23.344;2022-10-24T09:30:38;12.77;;;8.88;;
12218;SDS011;6172;42.646;23.344;2022-10-24T09:33:09;15.40;;;8.65;;
12218;SDS011;6172;42.646;23.344;2022-10-24T09:35:44;15.65;;;9.05;;
12218;SDS011;6172;42.646;23.344;2022-10-24T09:38:26;14.43;;;7.95;;
12218;SDS011;6172;42.646;23.344;2022-10-24T09:40:58;16.00;;;8.52;;
12218;SDS011;6172;42.646;23.344;2022-10-24T09:43:31;16.35;;;8.85;;
12218;SDS011;6172;42.646;23.344;2022-10-24T09:46:01;17.65;;;8.88;;
12218;SDS011;6172;42.646;23.344;2022-10-24T09:48:33;14.02;;;8.38;;
12218;SDS011;6172;42.646;23.344;2022-10-24T09:51:07;20.42;;;8.05;;
12218;SDS011;6172;42.646;23.344;2022-10-24T09:53:35;14.73;;;8.32;;
12218;SDS011;6172;42.646;23.344;2022-10-24T09:56:06;11.15;;;6.70;;
12218;SDS011;6172;42.646;23.344;2022-10-24T09:58:35;10.45;;;6.55;;
12218;SDS011;6172;42.646;23.344;2022-10-24T10:01:03;14.38;;;7.07;;
12218;SDS011;6172;42.646;23.344;2022-10-24T10:03:32;14.93;;;6.75;;
12218;SDS011;6172;42.646;23.344;2022-10-24T10:06:01;15.90;;;7.13;;
12218;SDS011;6172;42.646;23.344;2022-10-24T10:08:35;13.40;;;6.70;;
12218;SDS011;6172;42.646;23.344;2022-10-24T10:11:04;11.07;;;6.28;;
12218;SDS011;6172;42.646;23.344;2022-10-24T10:13:35;12.82;;;6.10;;
12218;SDS011;6172;42.646;23.344;2022-10-24T10:16:19;12.25;;;6.32;;
12218;SDS011;6172;42.646;23.344;2022-10-24T10:18:48;11.55;;;5.28;;
12218;SDS011;6172;42.646;23.344;2022-10-24T10:21:15;11.25;;;5.35;;
12218;SDS011;6172;42.646;23.344;2022-10-24T10:23:46;8.10;;;4.63;;
12218;SDS011;6172;42.646;23.344;2022-10-24T10:26:19;10.68;;;5.30;;
12218;SDS011;6172;42.646;23.344;2022-10-24T10:28:53;13.43;;;5.32;;
12218;SDS011;6172;42.646;23.344;2022-10-24T10:31:23;11.15;;;5.13;;
12218;SDS011;6172;42.646;23.344;2022-10-24T10:33:57;8.65;;;5.00;;
12218;SDS011;6172;42.646;23.344;2022-10-24T10:36:38;11.68;;;5.25;;
12218;SDS011;6172;42.646;23.344;2022-10-24T10:39:22;11.32;;;5.53;;
12218;SDS011;6172;42.646;23.344;2022-10-24T10:42:02;13.98;;;5.25;;
12218;SDS011;6172;42.646;23.344;2022-10-24T10:44:47;8.70;;;4.75;;
12218;SDS011;6172;42.646;23.344;2022-10-24T10:47:26;6.85;;;4.40;;
12218;SDS011;6172;42.646;23.344;2022-10-24T10:50:02;12.50;;;4.90;;
12218;SDS011;6172;42.646;23.344;2022-10-24T10:52:44;11.13;;;4.63;;
12218;SDS011;6172;42.646;23.344;2022-10-24T10:55:19;14.80;;;5.05;;
12218;SDS011;6172;42.646;23.344;2022-10-24T10:57:56;7.15;;;4.75;;
12218;SDS011;6172;42.646;23.344;2022-10-24T11:00:32;13.88;;;4.68;;
12218;SDS011;6172;42.646;23.344;2022-10-24T11:03:20;13.35;;;4.70;;
12218;SDS011;6172;42.646;23.344;2022-10-24T11:06:00;10.35;;;4.55;;
12218;SDS011;6172;42.646;23.344;2022-10-24T11:08:49;12.82;;;5.00;;
12218;SDS011;6172;42.646;23.344;2022-10-24T11:11:41;8.75;;;4.38;;
12218;SDS011;6172;42.646;23.344;2022-10-24T11:14:15;13.55;;;4.57;;
12218;SDS011;6172;42.646;23.344;2022-10-24T11:16:51;9.88;;;4.50;;
12218;SDS011;6172;42.646;23.344;2022-10-24T11:19:22;10.40;;;3.88;;
12218;SDS011;6172;42.646;23.344;2022-10-24T11:21:54;9.75;;;4.30;;
12218;SDS011;6172;42.646;23.344;2022-10-24T11:24:25;6.75;;;3.55;;
12218;SDS011;6172;42.646;23.344;2022-10-24T11:26:57;9.32;;;4.30;;
12218;SDS011;6172;42.646;23.344;2022-10-24T11:29:30;8.32;;;3.97;;
12218;SDS011;6172;42.646;23.344;2022-10-24T11:32:04;9.85;;;3.85;;
12218;SDS011;6172;42.646;23.344;2022-10-24T11:34:42;9.05;;;4.40;;
12218;SDS011;6172;42.646;23.344;2022-10-24T11:37:16;13.35;;;4.32;;
12218;SDS011;6172;42.646;23.344;2022-10-24T11:39:49;15.50;;;4.82;;
12218;SDS011;6172;42.646;23.344;2022-10-24T11:42:24;10.95;;;4.32;;
12218;SDS011;6172;42.646;23.344;2022-10-24T11:44:57;12.25;;;4.05;;
12218;SDS011;6172;42.646;23.344;2022-10-24T11:47:38;12.80;;;4.70;;
12218;SDS011;6172;42.646;23.344;2022-10-24T11:50:14;15.05;;;4.85;;
12218;SDS011;6172;42.646;23.344;2022-10-24T11:52:49;12.70;;;4.70;;
12218;SDS011;6172;42.646;23.344;2022-10-24T11:55:19;11.93;;;4.43;;
12218;SDS011;6172;42.646;23.344;2022-10-24T11:57:51;13.82;;;4.63;;
12218;SDS011;6172;42.646;23.344;2022-10-24T12:00:23;21.15;;;5.32;;
12218;SDS011;6172;42.646;23.344;2022-10-24T12:12:07;12.18;;;4.45;;
12218;SDS011;6172;42.646;23.344;2022-10-24T12:14:51;15.63;;;5.35;;
12218;SDS011;6172;42.646;23.344;2022-10-24T12:17:30;11.20;;;4.90;;
12218;SDS011;6172;42.646;23.344;2022-10-24T12:20:12;10.07;;;4.78;;
12218;SDS011;6172;42.646;23.344;2022-10-24T12:22:41;16.33;;;5.35;;
12218;SDS011;6172;42.646;23.344;2022-10-24T12:25:16;14.68;;;5.43;;
12218;SDS011;6172;42.646;23.344;2022-10-24T12:27:51;10.93;;;4.40;;
12218;SDS011;6172;42.646;23.344;2022-10-24T12:30:22;11.60;;;5.13;;
12218;SDS011;6172;42.646;23.344;2022-10-24T12:32:51;17.88;;;5.40;;
12218;SDS011;6172;42.646;23.344;2022-10-24T12:35:32;13.90;;;5.10;;
12218;SDS011;6172;42.646;23.344;2022-10-24T12:38:14;16.27;;;4.68;;
12218;SDS011;6172;42.646;23.344;2022-10-24T12:40:50;14.77;;;5.07;;
12218;SDS011;6172;42.646;23.344;2022-10-24T12:43:28;11.45;;;4.78;;
12218;SDS011;6172;42.646;23.344;2022-10-24T12:45:59;14.73;;;5.10;;
12218;SDS011;6172;42.646;23.344;2022-10-24T12:48:35;11.10;;;4.53;;
12218;SDS011;6172;42.646;23.344;2022-10-24T12:54:01;17.20;;;5.72;;
12218;SDS011;6172;42.646;23.344;2022-10-24T12:56:31;13.55;;;5.13;;
12218;SDS011;6172;42.646;23.344;2022-10-24T12:58:59;12.98;;;4.82;;
12218;SDS011;6172;42.646;23.344;2022-10-24T13:01:31;11.23;;;4.25;;
12218;SDS011;6172;42.646;23.344;2022-10-24T13:04:07;10.50;;;5.10;;
12218;SDS011;6172;42.646;23.344;2022-10-24T13:09:59;12.45;;;5.32;;
12218;SDS011;6172;42.646;23.344;2022-10-24T13:12:42;10.85;;;5.30;;
12218;SDS011;6172;42.646;23.344;2022-10-24T13:15:22;13.57;;;5.50;;
12218;SDS011;6172;42.646;23.344;2022-10-24T13:17:58;11.40;;;5.82;;
12218;SDS011;6172;42.646;23.344;2022-10-24T13:20:40;14.80;;;4.95;;
12218;SDS011;6172;42.646;23.344;2022-10-24T13:23:13;14.88;;;5.25;;
12218;SDS011;6172;42.646;23.344;2022-10-24T13:25:42;17.70;;;5.75;;
12218;SDS011;6172;42.646;23.344;2022-10-24T13:28:32;13.63;;;5.80;;
12218;SDS011;6172;42.646;23.344;2022-10-24T13:34:10;14.23;;;5.03;;
12218;SDS011;6172;42.646;23.344;2022-10-24T13:36:43;15.07;;;5.05;;
12218;SDS011;6172;42.646;23.344;2022-10-24T13:39:14;17.80;;;4.90;;
12218;SDS011;6172;42.646;23.344;2022-10-24T13:41:44;15.18;;;4.78;;
12218;SDS011;6172;42.646;23.344;2022-10-24T13:44:18;11.35;;;4.95;;
12218;SDS011;6172;42.646;23.344;2022-10-24T13:46:54;11.77;;;5.97;;
12218;SDS011;6172;42.646;23.344;2022-10-24T13:49:29;12.45;;;4.95;;
12218;SDS011;6172;42.646;23.344;2022-10-24T13:51:59;14.13;;;5.10;;
12218;SDS011;6172;42.646;23.344;2022-10-24T13:54:32;12.82;;;4.70;;
12218;SDS011;6172;42.646;23.344;2022-10-24T13:57:02;15.13;;;5.95;;
12218;SDS011;6172;42.646;23.344;2022-10-24T13:59:29;13.13;;;4.72;;
12218;SDS011;6172;42.646;23.344;2022-10-24T14:01:58;12.05;;;4.57;;
12218;SDS011;6172;42.646;23.344;2022-10-24T14:04:29;11.23;;;4.35;;
12218;SDS011;6172;42.646;23.344;2022-10-24T14:07:01;13.75;;;4.85;;
12218;SDS011;6172;42.646;23.344;2022-10-24T14:09:29;16.13;;;4.32;;
12218;SDS011;6172;42.646;23.344;2022-10-24T14:12:03;14.10;;;4.57;;
12218;SDS011;6172;42.646;23.344;2022-10-24T14:14:32;12.93;;;5.20;;
12218;SDS011;6172;42.646;23.344;2022-10-24T14:17:05;15.10;;;4.72;;
12218;SDS011;6172;42.646;23.344;2022-10-24T14:19:48;13.35;;;5.72;;
12218;SDS011;6172;42.646;23.344;2022-10-24T14:22:17;12.35;;;5.22;;
12218;SDS011;6172;42.646;23.344;2022-10-24T14:24:46;11.88;;;4.85;;
12218;SDS011;6172;42.646;23.344;2022-10-24T14:27:14;16.63;;;5.25;;
12218;SDS011;6172;42.646;23.344;2022-10-24T14:29:52;16.13;;;5.05;;
12218;SDS011;6172;42.646;23.344;2022-10-24T14:32:23;15.73;;;5.22;;
12218;SDS011;6172;42.646;23.344;2022-10-24T14:34:53;17.58;;;5.43;;
12218;SDS011;6172;42.646;23.344;2022-10-24T14:37:25;19.75;;;5.65;;
12218;SDS011;6172;42.646;23.344;2022-10-24T14:39:54;17.05;;;5.68;;
12218;SDS011;6172;42.646;23.344;2022-10-24T14:42:22;19.75;;;6.07;;
12218;SDS011;6172;42.646;23.344;2022-10-24T14:44:50;13.20;;;5.82;;
12218;SDS011;6172;42.646;23.344;2022-10-24T14:47:21;23.85;;;6.20;;
12218;SDS011;6172;42.646;23.344;2022-10-24T14:49:50;15.98;;;5.65;;
12218;SDS011;6172;42.646;23.344;2022-10-24T14:52:21;17.48;;;6.18;;
12218;SDS011;6172;42.646;23.344;2022-10-24T14:54:52;17.25;;;5.70;;
12218;SDS011;6172;42.646;23.344;2022-10-24T14:57:23;13.57;;;5.35;;
12218;SDS011;6172;42.646;23.344;2022-10-24T14:59:52;19.45;;;5.90;;
12218;SDS011;6172;42.646;23.344;2022-10-24T15:02:23;11.77;;;6.13;;
12218;SDS011;6172;42.646;23.344;2022-10-24T15:04:55;13.00;;;5.25;;
12218;SDS011;6172;42.646;23.344;2022-10-24T15:07:39;16.25;;;5.88;;
12218;SDS011;6172;42.646;23.344;2022-10-24T15:10:20;15.23;;;5.82;;
12218;SDS011;6172;42.646;23.344;2022-10-24T15:12:58;16.73;;;5.68;;
12218;SDS011;6172;42.646;23.344;2022-10-24T15:15:28;13.40;;;5.32;;